sensor_id;sensor_type;location;lat;lon;timestamp;temperature;humidity
3402;DHT22;1714;49.756;8.610;2023-08-20T00:09:15;23.30;1.00
3402;DHT22;1714;49.756;8.610;2023-08-20T00:19:52;23.20;1.00
3402;DHT22;1714;49.756;8.610;2023-08-20T00:30:28;23.30;1.00
3402;DHT22;1714;49.756;8.610;2023-08-20T00:41:03;23.10;1.00
3402;DHT22;1714;49.756;8.610;2023-08-20T00:51:39;23.10;1.00
3402;DHT22;1714;49.756;8.610;2023-08-20T01:02:15;23.00;1.00
3402;DHT22;1714;49.756;8.610;2023-08-20T01:12:52;22.90;1.00
3402;DHT22;1714;49.756;8.610;2023-08-20T01:23:52;22.80;1.00
3402;DHT22;1714;49.756;8.610;2023-08-20T01:34:32;22.60;1.00
3402;DHT22;1714;49.756;8.610;2023-08-20T01:45:08;22.50;1.00
3402;DHT22;1714;49.756;8.610;2023-08-20T01:55:43;22.50;1.00
3402;DHT22;1714;49.756;8.610;2023-08-20T02:06:19;22.40;1.00
3402;DHT22;1714;49.756;8.610;2023-08-20T02:16:54;22.30;1.00
3402;DHT22;1714;49.756;8.610;2023-08-20T02:27:31;22.10;1.00
3402;DHT22;1714;49.756;8.610;2023-08-20T02:38:08;21.90;1.00
3402;DHT22;1714;49.756;8.610;2023-08-20T02:48:45;21.90;1.00
3402;DHT22;1714;49.756;8.610;2023-08-20T02:59:32;21.70;1.00
3402;DHT22;1714;49.756;8.610;2023-08-20T03:10:37;21.80;1.00
3402;DHT22;1714;49.756;8.610;2023-08-20T03:21:12;21.80;1.00
3402;DHT22;1714;49.756;8.610;2023-08-20T03:31:48;21.60;1.00
3402;DHT22;1714;49.756;8.610;2023-08-20T03:42:23;21.50;1.00
3402;DHT22;1714;49.756;8.610;2023-08-20T03:52:58;21.30;1.00
3402;DHT22;1714;49.756;8.610;2023-08-20T04:03:34;21.30;1.00
3402;DHT22;1714;49.756;8.610;2023-08-20T04:14:27;21.30;1.00
3402;DHT22;1714;49.756;8.610;2023-08-20T04:25:03;21.10;1.00
3402;DHT22;1714;49.756;8.610;2023-08-20T04:35:40;21.10;1.00
3402;DHT22;1714;49.756;8.610;2023-08-20T04:46:16;21.10;1.00
3402;DHT22;1714;49.756;8.610;2023-08-20T04:56:53;21.10;1.00
3402;DHT22;1714;49.756;8.610;2023-08-20T05:07:29;21.20;1.00
3402;DHT22;1714;49.756;8.610;2023-08-20T05:18:05;21.30;1.00
3402;DHT22;1714;49.756;8.610;2023-08-20T05:28:41;21.20;1.00
3402;DHT22;1714;49.756;8.610;2023-08-20T05:39:17;21.40;1.00
3402;DHT22;1714;49.756;8.610;2023-08-20T05:49:52;21.60;1.00
3402;DHT22;1714;49.756;8.610;2023-08-20T06:00:29;21.70;1.00
3402;DHT22;1714;49.756;8.610;2023-08-20T06:11:04;21.90;1.00
3402;DHT22;1714;49.756;8.610;2023-08-20T06:21:39;22.00;1.00
3402;DHT22;1714;49.756;8.610;2023-08-20T06:32:14;22.20;1.00
3402;DHT22;1714;49.756;8.610;2023-08-20T06:42:49;22.50;1.00
3402;DHT22;1714;49.756;8.610;2023-08-20T06:53:24;22.60;1.00
3402;DHT22;1714;49.756;8.610;2023-08-20T07:03:59;22.90;1.00
3402;DHT22;1714;49.756;8.610;2023-08-20T07:14:37;23.50;1.00
3402;DHT22;1714;49.756;8.610;2023-08-20T07:25:12;24.60;1.00
3402;DHT22;1714;49.756;8.610;2023-08-20T07:35:47;25.30;1.00
3402;DHT22;1714;49.756;8.610;2023-08-20T07:46:22;26.10;1.00
3402;DHT22;1714;49.756;8.610;2023-08-20T07:56:57;26.60;1.00
3402;DHT22;1714;49.756;8.610;2023-08-20T08:07:33;27.20;1.00
3402;DHT22;1714;49.756;8.610;2023-08-20T08:18:08;27.60;1.00
3402;DHT22;1714;49.756;8.610;2023-08-20T08:28:43;28.20;1.00
3402;DHT22;1714;49.756;8.610;2023-08-20T08:39:19;28.50;1.00
3402;DHT22;1714;49.756;8.610;2023-08-20T08:49:55;29.00;1.00
3402;DHT22;1714;49.756;8.610;2023-08-20T09:00:31;29.50;1.00
3402;DHT22;1714;49.756;8.610;2023-08-20T09:11:07;30.10;1.00
3402;DHT22;1714;49.756;8.610;2023-08-20T09:21:46;30.30;1.00
3402;DHT22;1714;49.756;8.610;2023-08-20T09:32:23;30.80;1.00
3402;DHT22;1714;49.756;8.610;2023-08-20T09:42:58;31.20;1.00
3402;DHT22;1714;49.756;8.610;2023-08-20T09:53:39;31.50;1.00
3402;DHT22;1714;49.756;8.610;2023-08-20T10:04:17;31.60;1.00
3402;DHT22;1714;49.756;8.610;2023-08-20T10:14:57;32.20;1.00
3402;DHT22;1714;49.756;8.610;2023-08-20T10:25:41;32.30;1.00
3402;DHT22;1714;49.756;8.610;2023-08-20T10:36:41;32.80;1.00
3402;DHT22;1714;49.756;8.610;2023-08-20T10:47:17;33.20;1.00
3402;DHT22;1714;49.756;8.610;2023-08-20T10:57:57;33.70;1.00
3402;DHT22;1714;49.756;8.610;2023-08-20T11:08:52;33.60;1.00
3402;DHT22;1714;49.756;8.610;2023-08-20T11:19:28;34.00;1.00
3402;DHT22;1714;49.756;8.610;2023-08-20T11:31:05;34.80;1.00
3402;DHT22;1714;49.756;8.610;2023-08-20T11:41:51;34.80;1.00
3402;DHT22;1714;49.756;8.610;2023-08-20T11:52:33;34.60;1.00
3402;DHT22;1714;49.756;8.610;2023-08-20T12:03:09;35.00;1.00
3402;DHT22;1714;49.756;8.610;2023-08-20T12:13:48;34.80;1.00
3402;DHT22;1714;49.756;8.610;2023-08-20T12:24:23;35.00;1.00
3402;DHT22;1714;49.756;8.610;2023-08-20T12:34:58;35.00;1.00
3402;DHT22;1714;49.756;8.610;2023-08-20T12:45:34;35.20;1.00
3402;DHT22;1714;49.756;8.610;2023-08-20T12:56:08;35.00;1.00
3402;DHT22;1714;49.756;8.610;2023-08-20T13:06:43;34.90;1.00
3402;DHT22;1714;49.756;8.610;2023-08-20T13:17:48;35.10;1.00
3402;DHT22;1714;49.756;8.610;2023-08-20T13:28:25;35.50;1.00
3402;DHT22;1714;49.756;8.610;2023-08-20T13:39:00;35.30;1.00
3402;DHT22;1714;49.756;8.610;2023-08-20T13:49:35;35.00;1.00
3402;DHT22;1714;49.756;8.610;2023-08-20T14:00:37;35.40;1.00
3402;DHT22;1714;49.756;8.610;2023-08-20T14:11:12;35.50;1.00
3402;DHT22;1714;49.756;8.610;2023-08-20T14:21:51;35.20;1.00
3402;DHT22;1714;49.756;8.610;2023-08-20T14:32:27;34.70;1.00
3402;DHT22;1714;49.756;8.610;2023-08-20T14:43:02;34.80;1.00
3402;DHT22;1714;49.756;8.610;2023-08-20T14:53:38;34.90;1.00
3402;DHT22;1714;49.756;8.610;2023-08-20T15:04:14;34.60;1.00
3402;DHT22;1714;49.756;8.610;2023-08-20T15:14:50;34.40;1.00
3402;DHT22;1714;49.756;8.610;2023-08-20T15:25:24;34.50;1.00
3402;DHT22;1714;49.756;8.610;2023-08-20T15:35:59;33.70;1.00
3402;DHT22;1714;49.756;8.610;2023-08-20T15:46:34;33.80;1.00
3402;DHT22;1714;49.756;8.610;2023-08-20T15:57:11;33.80;1.00
3402;DHT22;1714;49.756;8.610;2023-08-20T16:07:46;33.80;1.00
3402;DHT22;1714;49.756;8.610;2023-08-20T16:18:22;33.70;1.00
3402;DHT22;1714;49.756;8.610;2023-08-20T16:28:57;33.20;1.00
3402;DHT22;1714;49.756;8.610;2023-08-20T16:39:33;32.80;1.00
3402;DHT22;1714;49.756;8.610;2023-08-20T16:50:10;32.50;1.00
3402;DHT22;1714;49.756;8.610;2023-08-20T17:00:44;32.30;1.00
3402;DHT22;1714;49.756;8.610;2023-08-20T17:11:19;31.90;1.00
3402;DHT22;1714;49.756;8.610;2023-08-20T17:21:55;31.60;1.00
3402;DHT22;1714;49.756;8.610;2023-08-20T17:32:31;31.10;1.00
3402;DHT22;1714;49.756;8.610;2023-08-20T17:43:06;30.70;1.00
3402;DHT22;1714;49.756;8.610;2023-08-20T17:53:41;29.90;1.00
3402;DHT22;1714;49.756;8.610;2023-08-20T18:04:16;29.60;1.00
3402;DHT22;1714;49.756;8.610;2023-08-20T18:14:51;29.20;1.00
3402;DHT22;1714;49.756;8.610;2023-08-20T18:25:26;28.60;1.00
3402;DHT22;1714;49.756;8.610;2023-08-20T18:36:01;28.20;1.00
3402;DHT22;1714;49.756;8.610;2023-08-20T18:46:36;27.80;1.00
3402;DHT22;1714;49.756;8.610;2023-08-20T18:57:12;27.50;1.00
3402;DHT22;1714;49.756;8.610;2023-08-20T19:07:48;27.30;1.00
3402;DHT22;1714;49.756;8.610;2023-08-20T19:18:26;27.10;1.00
3402;DHT22;1714;49.756;8.610;2023-08-20T19:29:02;26.90;1.00
3402;DHT22;1714;49.756;8.610;2023-08-20T19:39:38;26.70;1.00
3402;DHT22;1714;49.756;8.610;2023-08-20T19:50:13;26.60;1.00
3402;DHT22;1714;49.756;8.610;2023-08-20T20:00:48;26.30;1.00
3402;DHT22;1714;49.756;8.610;2023-08-20T20:11:24;26.00;1.00
3402;DHT22;1714;49.756;8.610;2023-08-20T20:21:59;25.90;1.00
3402;DHT22;1714;49.756;8.610;2023-08-20T20:32:35;25.70;1.00
3402;DHT22;1714;49.756;8.610;2023-08-20T20:43:11;25.60;1.00
3402;DHT22;1714;49.756;8.610;2023-08-20T20:53:46;25.50;1.00
3402;DHT22;1714;49.756;8.610;2023-08-20T21:04:21;25.30;1.00
3402;DHT22;1714;49.756;8.610;2023-08-20T21:14:56;25.30;1.00
3402;DHT22;1714;49.756;8.610;2023-08-20T21:25:31;25.00;1.00
3402;DHT22;1714;49.756;8.610;2023-08-20T21:36:05;24.80;1.00
3402;DHT22;1714;49.756;8.610;2023-08-20T21:46:40;24.70;1.00
3402;DHT22;1714;49.756;8.610;2023-08-20T21:57:19;24.40;1.00
3402;DHT22;1714;49.756;8.610;2023-08-20T22:07:54;24.40;1.00
3402;DHT22;1714;49.756;8.610;2023-08-20T22:18:29;24.20;1.00
3402;DHT22;1714;49.756;8.610;2023-08-20T22:29:04;24.10;1.00
3402;DHT22;1714;49.756;8.610;2023-08-20T22:39:40;23.80;1.00
3402;DHT22;1714;49.756;8.610;2023-08-20T22:50:14;23.90;1.00
3402;DHT22;1714;49.756;8.610;2023-08-20T23:00:49;23.60;1.00
3402;DHT22;1714;49.756;8.610;2023-08-20T23:11:24;23.70;1.00
3402;DHT22;1714;49.756;8.610;2023-08-20T23:21:59;23.50;1.00
3402;DHT22;1714;49.756;8.610;2023-08-20T23:32:35;23.50;1.00
3402;DHT22;1714;49.756;8.610;2023-08-20T23:43:10;23.40;1.00
3402;DHT22;1714;49.756;8.610;2023-08-20T23:53:45;23.20;1.00
